PWSweather.com
Personal Weather Stations
Station Observations
ELMO01
Warwick, WarwickAU 4370

WarwickWarwickAU 4370

Lat: -28.238, Lon: 152.02

Elevation: 1519

Station Type: La Crosse WS2812

High Low Average
Temperature 82.8°F28.2°C 69.5°F20.8°C 76.1°F24.5°C
Dew Point 71.9°F22.2°C 65.7°F18.7°C 68.6°F20.3°C
Winds 9.9 mph 15.9 kmh 1.2 mph 1.9 kmh 6.0 mph SE9.7 kmh SE
Wind Gusts 15.0 mph24.1 kmh 2.9 mph4.7 kmh 9.0 mph14.5 kmh
Humidity 88% 67% 78%
Pressure 29.81 in1009.5 mb 29.70 in1005.8 mb -
Precipitation 0.00 in0.0 mm - -
Hour Temp Dew Point Humidity Winds Wind Gusts Pressure Precip Precip Rate Daily Precip Total
10:01 AM 77.8°F25.4°C 68.8°F20.4°C 74% 3.3 mph E5.3 kmh E 4.9 mph7.9 kmh 29.80 in1009.1 mb 0.00 in0.0 mm 0.00 in/hr0.0 mm/hr 0.00 in0.0 mm
10:06 AM 77.4°F25.2°C 68.5°F20.3°C 74% 2.3 mph N3.7 kmh N 4.9 mph7.9 kmh 29.80 in1009.1 mb 0.00 in0.0 mm 0.00 in/hr0.0 mm/hr 0.00 in0.0 mm
10:11 AM 77.8°F25.4°C 69.2°F20.7°C 75% 1.2 mph N1.9 kmh N 4.9 mph7.9 kmh 29.80 in1009.1 mb 0.00 in0.0 mm 0.00 in/hr0.0 mm/hr 0.00 in0.0 mm
10:16 AM 78.1°F25.6°C 69.5°F20.8°C 75% 3.9 mph N6.3 kmh N 6.0 mph9.7 kmh 29.80 in1009.1 mb 0.00 in0.0 mm 0.00 in/hr0.0 mm/hr 0.00 in0.0 mm
10:21 AM 78.1°F25.6°C 69.5°F20.8°C 75% 3.0 mph N4.8 kmh N 6.0 mph9.7 kmh 29.80 in1009.1 mb 0.00 in0.0 mm 0.00 in/hr0.0 mm/hr 0.00 in0.0 mm
10:26 AM 78.1°F25.6°C 69.5°F20.8°C 75% 2.3 mph N3.7 kmh N 4.7 mph7.6 kmh 29.80 in1009.1 mb 0.00 in0.0 mm 0.00 in/hr0.0 mm/hr 0.00 in0.0 mm
10:31 AM 78.3°F25.7°C 69.7°F20.9°C 75% 1.2 mph N1.9 kmh N 4.5 mph7.2 kmh 29.80 in1009.1 mb 0.00 in0.0 mm 0.00 in/hr0.0 mm/hr 0.00 in0.0 mm
10:36 AM 78.5°F25.8°C 68.7°F20.4°C 72% 4.1 mph NE6.6 kmh NE 6.7 mph10.8 kmh 29.81 in1009.5 mb 0.00 in0.0 mm 0.00 in/hr0.0 mm/hr 0.00 in0.0 mm
10:41 AM 78.3°F25.7°C 68.1°F20.1°C 71% 3.4 mph NE5.5 kmh NE 6.7 mph10.8 kmh 29.81 in1009.5 mb 0.00 in0.0 mm 0.00 in/hr0.0 mm/hr 0.00 in0.0 mm
10:46 AM 78.1°F25.6°C 67.6°F19.8°C 70% 3.8 mph E6.1 kmh E 6.7 mph10.8 kmh 29.81 in1009.5 mb 0.00 in0.0 mm 0.00 in/hr0.0 mm/hr 0.00 in0.0 mm
10:51 AM 77.9°F25.5°C 67.4°F19.7°C 70% 6.0 mph NE9.7 kmh NE 8.5 mph13.7 kmh 29.81 in1009.5 mb 0.00 in0.0 mm 0.00 in/hr0.0 mm/hr 0.00 in0.0 mm
10:56 AM 77.9°F25.5°C 67.8°F19.9°C 71% 5.0 mph ENE8.0 kmh ENE 8.5 mph13.7 kmh 29.81 in1009.5 mb 0.00 in0.0 mm 0.00 in/hr0.0 mm/hr 0.00 in0.0 mm
11:01 AM 77.9°F25.5°C 68.2°F20.1°C 72% 6.5 mph NE10.5 kmh NE 10.5 mph16.9 kmh 29.81 in1009.5 mb 0.00 in0.0 mm 0.00 in/hr0.0 mm/hr 0.00 in0.0 mm
11:06 AM 77.4°F25.2°C 68.5°F20.3°C 74% 4.6 mph ENE7.4 kmh ENE 10.5 mph16.9 kmh 29.81 in1009.5 mb 0.00 in0.0 mm 0.00 in/hr0.0 mm/hr 0.00 in0.0 mm
11:11 AM 77.4°F25.2°C 68.9°F20.5°C 75% 2.7 mph ENE4.3 kmh ENE 8.5 mph13.7 kmh 29.80 in1009.1 mb 0.00 in0.0 mm 0.00 in/hr0.0 mm/hr 0.00 in0.0 mm
11:16 AM 77.8°F25.4°C 68.1°F20.1°C 72% 2.6 mph NE4.2 kmh NE 5.8 mph9.3 kmh 29.80 in1009.1 mb 0.00 in0.0 mm 0.00 in/hr0.0 mm/hr 0.00 in0.0 mm
11:21 AM 77.9°F25.5°C 68.2°F20.1°C 72% 2.2 mph E3.5 kmh E 6.3 mph10.1 kmh 29.80 in1009.1 mb 0.00 in0.0 mm 0.00 in/hr0.0 mm/hr 0.00 in0.0 mm
11:26 AM 78.5°F25.8°C 68.7°F20.4°C 72% 2.8 mph SSE4.5 kmh SSE 6.3 mph10.1 kmh 29.79 in1008.8 mb 0.00 in0.0 mm 0.00 in/hr0.0 mm/hr 0.00 in0.0 mm
11:31 AM 79.2°F26.2°C 69.4°F20.8°C 72% 2.9 mph SE4.7 kmh SE 5.1 mph8.2 kmh 29.79 in1008.8 mb 0.00 in0.0 mm 0.00 in/hr0.0 mm/hr 0.00 in0.0 mm
11:36 AM 79.9°F26.6°C 69.7°F20.9°C 71% 4.3 mph SSE6.9 kmh SSE 6.7 mph10.8 kmh 29.79 in1008.8 mb 0.00 in0.0 mm 0.00 in/hr0.0 mm/hr 0.00 in0.0 mm
11:41 AM 79.9°F26.6°C 69.7°F20.9°C 71% 4.1 mph SE6.6 kmh SE 6.7 mph10.8 kmh 29.78 in1008.5 mb 0.00 in0.0 mm 0.00 in/hr0.0 mm/hr 0.00 in0.0 mm
11:46 AM 79.9°F26.6°C 69.7°F20.9°C 71% 4.2 mph SE6.8 kmh SE 6.7 mph10.8 kmh 29.78 in1008.5 mb 0.00 in0.0 mm 0.00 in/hr0.0 mm/hr 0.00 in0.0 mm
11:51 AM 79.9°F26.6°C 69.7°F20.9°C 71% 5.3 mph SE8.5 kmh SE 7.6 mph12.2 kmh 29.78 in1008.5 mb 0.00 in0.0 mm 0.00 in/hr0.0 mm/hr 0.00 in0.0 mm
11:56 AM 80.5°F26.9°C 71.0°F21.7°C 73% 5.8 mph SE9.3 kmh SE 8.1 mph13.0 kmh 29.78 in1008.5 mb 0.00 in0.0 mm 0.00 in/hr0.0 mm/hr 0.00 in0.0 mm
12:01 PM 80.6°F27.0°C 71.2°F21.8°C 73% 4.2 mph SE6.8 kmh SE 10.1 mph16.3 kmh 29.78 in1008.5 mb 0.00 in0.0 mm 0.00 in/hr0.0 mm/hr 0.00 in0.0 mm
12:06 PM 81.0°F27.2°C 71.9°F22.2°C 74% 6.1 mph SE9.8 kmh SE 10.1 mph16.3 kmh 29.77 in1008.1 mb 0.00 in0.0 mm 0.00 in/hr0.0 mm/hr 0.00 in0.0 mm
12:11 PM 81.2°F27.3°C 71.7°F22.1°C 73% 4.6 mph SE7.4 kmh SE 9.8 mph15.8 kmh 29.77 in1008.1 mb 0.00 in0.0 mm 0.00 in/hr0.0 mm/hr 0.00 in0.0 mm
12:16 PM 81.5°F27.5°C 71.6°F22.0°C 72% 5.7 mph S9.2 kmh S 9.2 mph14.8 kmh 29.77 in1008.1 mb 0.00 in0.0 mm 0.00 in/hr0.0 mm/hr 0.00 in0.0 mm
12:21 PM 81.4°F27.4°C 71.1°F21.7°C 71% 7.1 mph SSE11.4 kmh SSE 12.1 mph19.5 kmh 29.77 in1008.1 mb 0.00 in0.0 mm 0.00 in/hr0.0 mm/hr 0.00 in0.0 mm
12:26 PM 81.2°F27.3°C 70.9°F21.6°C 71% 6.2 mph SE10.0 kmh SE 12.1 mph19.5 kmh 29.77 in1008.1 mb 0.00 in0.0 mm 0.00 in/hr0.0 mm/hr 0.00 in0.0 mm
12:31 PM 81.0°F27.2°C 71.1°F21.7°C 72% 6.9 mph SSE11.1 kmh SSE 9.4 mph15.1 kmh 29.76 in1007.8 mb 0.00 in0.0 mm 0.00 in/hr0.0 mm/hr 0.00 in0.0 mm
12:36 PM 81.0°F27.2°C 70.7°F21.5°C 71% 5.6 mph S9.0 kmh S 8.7 mph14.0 kmh 29.76 in1007.8 mb 0.00 in0.0 mm 0.00 in/hr0.0 mm/hr 0.00 in0.0 mm
12:41 PM 80.8°F27.1°C 70.6°F21.4°C 71% 7.1 mph SSE11.4 kmh SSE 9.8 mph15.8 kmh 29.76 in1007.8 mb 0.00 in0.0 mm 0.00 in/hr0.0 mm/hr 0.00 in0.0 mm
12:46 PM 81.4°F27.4°C 71.1°F21.7°C 71% 5.8 mph SE9.3 kmh SE 9.8 mph15.8 kmh 29.75 in1007.5 mb 0.00 in0.0 mm 0.00 in/hr0.0 mm/hr 0.00 in0.0 mm
12:51 PM 81.5°F27.5°C 70.8°F21.6°C 70% 6.5 mph S10.5 kmh S 8.7 mph14.0 kmh 29.75 in1007.5 mb 0.00 in0.0 mm 0.00 in/hr0.0 mm/hr 0.00 in0.0 mm
12:56 PM 81.2°F27.3°C 70.5°F21.4°C 70% 6.2 mph SE10.0 kmh SE 9.8 mph15.8 kmh 29.75 in1007.5 mb 0.00 in0.0 mm 0.00 in/hr0.0 mm/hr 0.00 in0.0 mm
01:01 PM 81.0°F27.2°C 70.7°F21.5°C 71% 6.8 mph SE10.9 kmh SE 9.8 mph15.8 kmh 29.74 in1007.1 mb 0.00 in0.0 mm 0.00 in/hr0.0 mm/hr 0.00 in0.0 mm
01:06 PM 81.4°F27.4°C 70.7°F21.5°C 70% 6.5 mph SE10.5 kmh SE 10.7 mph17.2 kmh 29.74 in1007.1 mb 0.00 in0.0 mm 0.00 in/hr0.0 mm/hr 0.00 in0.0 mm
01:11 PM 81.5°F27.5°C 70.4°F21.3°C 69% 7.8 mph SE12.6 kmh SE 10.7 mph17.2 kmh 29.73 in1006.8 mb 0.00 in0.0 mm 0.00 in/hr0.0 mm/hr 0.00 in0.0 mm
01:16 PM 81.5°F27.5°C 70.8°F21.6°C 70% 7.8 mph SE12.6 kmh SE 12.8 mph20.6 kmh 29.73 in1006.8 mb 0.00 in0.0 mm 0.00 in/hr0.0 mm/hr 0.00 in0.0 mm
01:21 PM 81.9°F27.7°C 71.2°F21.8°C 70% 5.1 mph SE8.2 kmh SE 12.8 mph20.6 kmh 29.73 in1006.8 mb 0.00 in0.0 mm 0.00 in/hr0.0 mm/hr 0.00 in0.0 mm
01:26 PM 82.4°F28.0°C 71.6°F22.0°C 70% 5.3 mph SE8.5 kmh SE 9.2 mph14.8 kmh 29.72 in1006.4 mb 0.00 in0.0 mm 0.00 in/hr0.0 mm/hr 0.00 in0.0 mm
01:31 PM 82.4°F28.0°C 71.2°F21.8°C 69% 5.3 mph SSE8.5 kmh SSE 9.6 mph15.4 kmh 29.72 in1006.4 mb 0.00 in0.0 mm 0.00 in/hr0.0 mm/hr 0.00 in0.0 mm
01:36 PM 81.9°F27.7°C 70.8°F21.6°C 69% 6.4 mph SE10.3 kmh SE 9.6 mph15.4 kmh 29.71 in1006.1 mb 0.00 in0.0 mm 0.00 in/hr0.0 mm/hr 0.00 in0.0 mm
01:42 PM 81.9°F27.7°C 71.2°F21.8°C 70% 6.4 mph SE10.3 kmh SE 10.5 mph16.9 kmh 29.71 in1006.1 mb 0.00 in0.0 mm 0.00 in/hr0.0 mm/hr 0.00 in0.0 mm
01:47 PM 82.4°F28.0°C 71.6°F22.0°C 70% 8.3 mph SE13.4 kmh SE 10.5 mph16.9 kmh 29.71 in1006.1 mb 0.00 in0.0 mm 0.00 in/hr0.0 mm/hr 0.00 in0.0 mm
01:52 PM 82.8°F28.2°C 71.1°F21.7°C 68% 9.6 mph SSE15.4 kmh SSE 13.2 mph21.2 kmh 29.71 in1006.1 mb 0.00 in0.0 mm 0.00 in/hr0.0 mm/hr 0.00 in0.0 mm
01:57 PM 82.4°F28.0°C 70.7°F21.5°C 68% 7.1 mph SE11.4 kmh SE 13.2 mph21.2 kmh 29.71 in1006.1 mb 0.00 in0.0 mm 0.00 in/hr0.0 mm/hr 0.00 in0.0 mm
02:02 PM 81.7°F27.6°C 70.6°F21.4°C 69% 5.8 mph SE9.3 kmh SE 10.5 mph16.9 kmh 29.71 in1006.1 mb 0.00 in0.0 mm 0.00 in/hr0.0 mm/hr 0.00 in0.0 mm
02:07 PM 82.1°F27.8°C 69.9°F21.1°C 67% 8.8 mph SE14.2 kmh SE 13.2 mph21.2 kmh 29.71 in1006.1 mb 0.00 in0.0 mm 0.00 in/hr0.0 mm/hr 0.00 in0.0 mm
02:12 PM 82.1°F27.8°C 70.4°F21.3°C 68% 7.2 mph SE11.6 kmh SE 13.2 mph21.2 kmh 29.71 in1006.1 mb 0.00 in0.0 mm 0.00 in/hr0.0 mm/hr 0.00 in0.0 mm
02:17 PM 82.1°F27.8°C 70.4°F21.3°C 68% 5.7 mph S9.2 kmh S 11.6 mph18.7 kmh 29.72 in1006.4 mb 0.00 in0.0 mm 0.00 in/hr0.0 mm/hr 0.00 in0.0 mm
02:22 PM 82.4°F28.0°C 71.2°F21.8°C 69% 7.3 mph SSE11.7 kmh SSE 11.6 mph18.7 kmh 29.72 in1006.4 mb 0.00 in0.0 mm 0.00 in/hr0.0 mm/hr 0.00 in0.0 mm
02:27 PM 82.4°F28.0°C 70.7°F21.5°C 68% 7.2 mph ESE11.6 kmh ESE 13.4 mph21.6 kmh 29.72 in1006.4 mb 0.00 in0.0 mm 0.00 in/hr0.0 mm/hr 0.00 in0.0 mm
02:32 PM 81.9°F27.7°C 69.9°F21.1°C 67% 6.7 mph SE10.8 kmh SE 13.4 mph21.6 kmh 29.72 in1006.4 mb 0.00 in0.0 mm 0.00 in/hr0.0 mm/hr 0.00 in0.0 mm
02:37 PM 81.5°F27.5°C 69.9°F21.1°C 68% 8.3 mph SSE13.4 kmh SSE 11.9 mph19.2 kmh 29.72 in1006.4 mb 0.00 in0.0 mm 0.00 in/hr0.0 mm/hr 0.00 in0.0 mm
02:42 PM 81.5°F27.5°C 69.9°F21.1°C 68% 7.7 mph SE12.4 kmh SE 11.6 mph18.7 kmh 29.72 in1006.4 mb 0.00 in0.0 mm 0.00 in/hr0.0 mm/hr 0.00 in0.0 mm
02:47 PM 81.0°F27.2°C 69.9°F21.1°C 69% 6.9 mph SE11.1 kmh SE 12.3 mph19.8 kmh 29.72 in1006.4 mb 0.00 in0.0 mm 0.00 in/hr0.0 mm/hr 0.00 in0.0 mm
02:52 PM 80.6°F27.0°C 69.1°F20.6°C 68% 7.9 mph SE12.7 kmh SE 12.3 mph19.8 kmh 29.72 in1006.4 mb 0.00 in0.0 mm 0.00 in/hr0.0 mm/hr 0.00 in0.0 mm
02:57 PM 79.9°F26.6°C 69.3°F20.7°C 70% 6.1 mph SE9.8 kmh SE 12.1 mph19.5 kmh 29.72 in1006.4 mb 0.00 in0.0 mm 0.00 in/hr0.0 mm/hr 0.00 in0.0 mm
03:02 PM 79.9°F26.6°C 69.3°F20.7°C 70% 8.2 mph SE13.2 kmh SE 12.1 mph19.5 kmh 29.72 in1006.4 mb 0.00 in0.0 mm 0.00 in/hr0.0 mm/hr 0.00 in0.0 mm
03:07 PM 79.4°F26.3°C 69.1°F20.6°C 71% 7.1 mph SE11.4 kmh SE 12.3 mph19.8 kmh 29.72 in1006.4 mb 0.00 in0.0 mm 0.00 in/hr0.0 mm/hr 0.00 in0.0 mm
03:12 PM 78.8°F26.0°C 68.6°F20.3°C 71% 9.9 mph SSE15.9 kmh SSE 14.3 mph23.0 kmh 29.72 in1006.4 mb 0.00 in0.0 mm 0.00 in/hr0.0 mm/hr 0.00 in0.0 mm
03:17 PM 78.5°F25.8°C 68.7°F20.4°C 72% 7.8 mph S12.6 kmh S 14.3 mph23.0 kmh 29.72 in1006.4 mb 0.00 in0.0 mm 0.00 in/hr0.0 mm/hr 0.00 in0.0 mm
03:22 PM 78.5°F25.8°C 69.0°F20.6°C 73% 8.3 mph SE13.4 kmh SE 11.4 mph18.3 kmh 29.72 in1006.4 mb 0.00 in0.0 mm 0.00 in/hr0.0 mm/hr 0.00 in0.0 mm
03:27 PM 78.5°F25.8°C 69.0°F20.6°C 73% 9.7 mph SE15.6 kmh SE 11.9 mph19.2 kmh 29.72 in1006.4 mb 0.00 in0.0 mm 0.00 in/hr0.0 mm/hr 0.00 in0.0 mm
03:32 PM 78.5°F25.8°C 69.0°F20.6°C 73% 9.0 mph SE14.5 kmh SE 11.9 mph19.2 kmh 29.71 in1006.1 mb 0.00 in0.0 mm 0.00 in/hr0.0 mm/hr 0.00 in0.0 mm
03:37 PM 78.1°F25.6°C 68.8°F20.4°C 73% 6.2 mph SE10.0 kmh SE 11.9 mph19.2 kmh 29.72 in1006.4 mb 0.00 in0.0 mm 0.00 in/hr0.0 mm/hr 0.00 in0.0 mm
03:42 PM 77.8°F25.4°C 69.2°F20.7°C 75% 8.4 mph ESE13.5 kmh ESE 10.3 mph16.6 kmh 29.71 in1006.1 mb 0.00 in0.0 mm 0.00 in/hr0.0 mm/hr 0.00 in0.0 mm
03:47 PM 77.0°F25.0°C 69.7°F20.9°C 78% 5.8 mph SE9.3 kmh SE 12.1 mph19.5 kmh 29.71 in1006.1 mb 0.00 in0.0 mm 0.00 in/hr0.0 mm/hr 0.00 in0.0 mm
03:52 PM 76.1°F24.5°C 68.8°F20.4°C 78% 7.5 mph SSE12.1 kmh SSE 12.1 mph19.5 kmh 29.71 in1006.1 mb 0.00 in0.0 mm 0.00 in/hr0.0 mm/hr 0.00 in0.0 mm
03:57 PM 75.6°F24.2°C 68.7°F20.4°C 79% 7.6 mph SE12.2 kmh SE 12.1 mph19.5 kmh 29.71 in1006.1 mb 0.00 in0.0 mm 0.00 in/hr0.0 mm/hr 0.00 in0.0 mm
04:02 PM 75.2°F24.0°C 68.4°F20.2°C 79% 8.8 mph SE14.2 kmh SE 10.3 mph16.6 kmh 29.71 in1006.1 mb 0.00 in0.0 mm 0.00 in/hr0.0 mm/hr 0.00 in0.0 mm
04:07 PM 75.2°F24.0°C 68.4°F20.2°C 79% 7.5 mph SE12.1 kmh SE 10.5 mph16.9 kmh 29.71 in1006.1 mb 0.00 in0.0 mm 0.00 in/hr0.0 mm/hr 0.00 in0.0 mm
04:12 PM 75.1°F23.9°C 68.6°F20.3°C 80% 6.3 mph SE10.1 kmh SE 10.5 mph16.9 kmh 29.70 in1005.8 mb 0.00 in0.0 mm 0.00 in/hr0.0 mm/hr 0.00 in0.0 mm
04:17 PM 75.1°F23.9°C 68.6°F20.3°C 80% 7.6 mph SE12.2 kmh SE 10.5 mph16.9 kmh 29.70 in1005.8 mb 0.00 in0.0 mm 0.00 in/hr0.0 mm/hr 0.00 in0.0 mm
04:22 PM 74.9°F23.8°C 68.4°F20.2°C 80% 7.1 mph SE11.4 kmh SE 10.1 mph16.3 kmh 29.70 in1005.8 mb 0.00 in0.0 mm 0.00 in/hr0.0 mm/hr 0.00 in0.0 mm
04:27 PM 74.9°F23.8°C 68.8°F20.4°C 81% 7.5 mph SE12.1 kmh SE 11.0 mph17.7 kmh 29.70 in1005.8 mb 0.00 in0.0 mm 0.00 in/hr0.0 mm/hr 0.00 in0.0 mm
04:32 PM 74.9°F23.8°C 68.8°F20.4°C 81% 8.8 mph SE14.2 kmh SE 11.4 mph18.3 kmh 29.70 in1005.8 mb 0.00 in0.0 mm 0.00 in/hr0.0 mm/hr 0.00 in0.0 mm
04:37 PM 74.5°F23.6°C 68.4°F20.2°C 81% 7.7 mph SE12.4 kmh SE 11.4 mph18.3 kmh 29.70 in1005.8 mb 0.00 in0.0 mm 0.00 in/hr0.0 mm/hr 0.00 in0.0 mm
04:42 PM 74.5°F23.6°C 68.4°F20.2°C 81% 5.5 mph ESE8.9 kmh ESE 11.4 mph18.3 kmh 29.70 in1005.8 mb 0.00 in0.0 mm 0.00 in/hr0.0 mm/hr 0.00 in0.0 mm
04:46 PM 74.5°F23.6°C 68.4°F20.2°C 81% 6.1 mph S9.8 kmh S 10.5 mph16.9 kmh 29.71 in1006.1 mb 0.00 in0.0 mm 0.00 in/hr0.0 mm/hr 0.00 in0.0 mm
04:51 PM 74.5°F23.6°C 68.4°F20.2°C 81% 7.2 mph SSE11.6 kmh SSE 9.2 mph14.8 kmh 29.71 in1006.1 mb 0.00 in0.0 mm 0.00 in/hr0.0 mm/hr 0.00 in0.0 mm
04:56 PM 74.5°F23.6°C 68.4°F20.2°C 81% 7.4 mph E11.9 kmh E 8.9 mph14.3 kmh 29.71 in1006.1 mb 0.00 in0.0 mm 0.00 in/hr0.0 mm/hr 0.00 in0.0 mm
05:02 PM 74.2°F23.4°C 68.1°F20.1°C 81% 6.6 mph SE10.6 kmh SE 13.4 mph21.6 kmh 29.71 in1006.1 mb 0.00 in0.0 mm 0.00 in/hr0.0 mm/hr 0.00 in0.0 mm
05:07 PM 74.2°F23.4°C 68.1°F20.1°C 81% 6.3 mph SE10.1 kmh SE 13.4 mph21.6 kmh 29.71 in1006.1 mb 0.00 in0.0 mm 0.00 in/hr0.0 mm/hr 0.00 in0.0 mm
05:12 PM 74.0°F23.3°C 68.2°F20.1°C 82% 9.7 mph SE15.6 kmh SE 11.2 mph18.0 kmh 29.71 in1006.1 mb 0.00 in0.0 mm 0.00 in/hr0.0 mm/hr 0.00 in0.0 mm
05:16 PM 73.8°F23.2°C 68.1°F20.1°C 82% 8.9 mph ESE14.3 kmh ESE 11.2 mph18.0 kmh 29.71 in1006.1 mb 0.00 in0.0 mm 0.00 in/hr0.0 mm/hr 0.00 in0.0 mm
05:21 PM 73.8°F23.2°C 68.1°F20.1°C 82% 5.9 mph SE9.5 kmh SE 11.4 mph18.3 kmh 29.70 in1005.8 mb 0.00 in0.0 mm 0.00 in/hr0.0 mm/hr 0.00 in0.0 mm
05:26 PM 73.8°F23.2°C 68.3°F20.2°C 83% 9.6 mph S15.4 kmh S 15.0 mph24.1 kmh 29.70 in1005.8 mb 0.00 in0.0 mm 0.00 in/hr0.0 mm/hr 0.00 in0.0 mm
05:31 PM 73.4°F23.0°C 68.0°F20.0°C 83% 8.5 mph SE13.7 kmh SE 15.0 mph24.1 kmh 29.71 in1006.1 mb 0.00 in0.0 mm 0.00 in/hr0.0 mm/hr 0.00 in0.0 mm
05:36 PM 73.3°F22.9°C 68.1°F20.1°C 84% 8.4 mph SE13.5 kmh SE 9.2 mph14.8 kmh 29.72 in1006.4 mb 0.00 in0.0 mm 0.00 in/hr0.0 mm/hr 0.00 in0.0 mm
05:41 PM 73.1°F22.8°C 68.3°F20.2°C 85% 7.6 mph SSE12.2 kmh SSE 11.4 mph18.3 kmh 29.72 in1006.4 mb 0.00 in0.0 mm 0.00 in/hr0.0 mm/hr 0.00 in0.0 mm
05:46 PM 72.9°F22.7°C 67.8°F19.9°C 84% 5.8 mph S9.3 kmh S 11.4 mph18.3 kmh 29.72 in1006.4 mb 0.00 in0.0 mm 0.00 in/hr0.0 mm/hr 0.00 in0.0 mm
05:51 PM 72.9°F22.7°C 67.8°F19.9°C 84% 7.5 mph SE12.1 kmh SE 9.2 mph14.8 kmh 29.72 in1006.4 mb 0.00 in0.0 mm 0.00 in/hr0.0 mm/hr 0.00 in0.0 mm
05:57 PM 72.7°F22.6°C 67.6°F19.8°C 84% 2.8 mph SE4.5 kmh SE 9.2 mph14.8 kmh 29.72 in1006.4 mb 0.00 in0.0 mm 0.00 in/hr0.0 mm/hr 0.00 in0.0 mm
06:01 PM 72.7°F22.6°C 67.6°F19.8°C 84% 5.3 mph SSE8.5 kmh SSE 9.2 mph14.8 kmh 29.73 in1006.8 mb 0.00 in0.0 mm 0.00 in/hr0.0 mm/hr 0.00 in0.0 mm
06:07 PM 72.7°F22.6°C 67.6°F19.8°C 84% 5.1 mph SSE8.2 kmh SSE 8.3 mph13.4 kmh 29.73 in1006.8 mb 0.00 in0.0 mm 0.00 in/hr0.0 mm/hr 0.00 in0.0 mm
06:12 PM 72.5°F22.5°C 67.4°F19.7°C 84% 2.9 mph S4.7 kmh S 6.9 mph11.1 kmh 29.73 in1006.8 mb 0.00 in0.0 mm 0.00 in/hr0.0 mm/hr 0.00 in0.0 mm
06:17 PM 72.4°F22.4°C 67.2°F19.6°C 84% 5.1 mph SE8.2 kmh SE 6.9 mph11.1 kmh 29.74 in1007.1 mb 0.00 in0.0 mm 0.00 in/hr0.0 mm/hr 0.00 in0.0 mm
06:22 PM 72.2°F22.3°C 67.1°F19.5°C 84% 5.2 mph SE8.4 kmh SE 7.4 mph11.9 kmh 29.74 in1007.1 mb 0.00 in0.0 mm 0.00 in/hr0.0 mm/hr 0.00 in0.0 mm
06:27 PM 72.2°F22.3°C 67.4°F19.7°C 85% 5.8 mph SSE9.3 kmh SSE 7.6 mph12.2 kmh 29.74 in1007.1 mb 0.00 in0.0 mm 0.00 in/hr0.0 mm/hr 0.00 in0.0 mm
06:32 PM 72.0°F22.2°C 67.2°F19.6°C 85% 7.5 mph S12.1 kmh S 9.2 mph14.8 kmh 29.74 in1007.1 mb 0.00 in0.0 mm 0.00 in/hr0.0 mm/hr 0.00 in0.0 mm
06:37 PM 71.8°F22.1°C 67.1°F19.5°C 85% 5.7 mph SSE9.2 kmh SSE 9.2 mph14.8 kmh 29.74 in1007.1 mb 0.00 in0.0 mm 0.00 in/hr0.0 mm/hr 0.00 in0.0 mm
06:42 PM 71.6°F22.0°C 67.2°F19.6°C 86% 5.3 mph SSE8.5 kmh SSE 6.9 mph11.1 kmh 29.75 in1007.5 mb 0.00 in0.0 mm 0.00 in/hr0.0 mm/hr 0.00 in0.0 mm
06:47 PM 71.5°F21.9°C 67.1°F19.5°C 86% 6.4 mph SE10.3 kmh SE 8.9 mph14.3 kmh 29.75 in1007.5 mb 0.00 in0.0 mm 0.00 in/hr0.0 mm/hr 0.00 in0.0 mm
06:52 PM 71.5°F21.9°C 67.1°F19.5°C 86% 8.3 mph E13.4 kmh E 9.8 mph15.8 kmh 29.75 in1007.5 mb 0.00 in0.0 mm 0.00 in/hr0.0 mm/hr 0.00 in0.0 mm
06:57 PM 71.3°F21.8°C 66.9°F19.4°C 86% 4.8 mph SSE7.7 kmh SSE 9.8 mph15.8 kmh 29.75 in1007.5 mb 0.00 in0.0 mm 0.00 in/hr0.0 mm/hr 0.00 in0.0 mm
07:01 PM 71.3°F21.8°C 66.9°F19.4°C 86% 6.7 mph SE10.8 kmh SE 11.4 mph18.3 kmh 29.75 in1007.5 mb 0.00 in0.0 mm 0.00 in/hr0.0 mm/hr 0.00 in0.0 mm
07:07 PM 71.1°F21.7°C 67.1°F19.5°C 87% 6.7 mph SE10.8 kmh SE 11.4 mph18.3 kmh 29.75 in1007.5 mb 0.00 in0.0 mm 0.00 in/hr0.0 mm/hr 0.00 in0.0 mm
07:12 PM 71.1°F21.7°C 67.1°F19.5°C 87% 7.2 mph SE11.6 kmh SE 9.2 mph14.8 kmh 29.75 in1007.5 mb 0.00 in0.0 mm 0.00 in/hr0.0 mm/hr 0.00 in0.0 mm
07:17 PM 70.9°F21.6°C 66.9°F19.4°C 87% 8.9 mph ESE14.3 kmh ESE 10.3 mph16.6 kmh 29.75 in1007.5 mb 0.00 in0.0 mm 0.00 in/hr0.0 mm/hr 0.00 in0.0 mm
07:22 PM 70.9°F21.6°C 66.9°F19.4°C 87% 7.6 mph SE12.2 kmh SE 10.3 mph16.6 kmh 29.74 in1007.1 mb 0.00 in0.0 mm 0.00 in/hr0.0 mm/hr 0.00 in0.0 mm
07:27 PM 70.7°F21.5°C 66.7°F19.3°C 87% 1.9 mph ESE3.1 kmh ESE 8.3 mph13.4 kmh 29.75 in1007.5 mb 0.00 in0.0 mm 0.00 in/hr0.0 mm/hr 0.00 in0.0 mm
07:32 PM 70.7°F21.5°C 66.7°F19.3°C 87% 3.3 mph SE5.3 kmh SE 7.6 mph12.2 kmh 29.75 in1007.5 mb 0.00 in0.0 mm 0.00 in/hr0.0 mm/hr 0.00 in0.0 mm
07:37 PM 70.7°F21.5°C 67.0°F19.4°C 88% 4.5 mph SE7.2 kmh SE 6.9 mph11.1 kmh 29.75 in1007.5 mb 0.00 in0.0 mm 0.00 in/hr0.0 mm/hr 0.00 in0.0 mm
07:42 PM 70.7°F21.5°C 67.0°F19.4°C 88% 7.5 mph SE12.1 kmh SE 7.6 mph12.2 kmh 29.75 in1007.5 mb 0.00 in0.0 mm 0.00 in/hr0.0 mm/hr 0.00 in0.0 mm
07:47 PM 70.7°F21.5°C 66.7°F19.3°C 87% 4.7 mph SE7.6 kmh SE 7.8 mph12.6 kmh 29.76 in1007.8 mb 0.00 in0.0 mm 0.00 in/hr0.0 mm/hr 0.00 in0.0 mm
07:52 PM 70.7°F21.5°C 67.0°F19.4°C 88% 6.3 mph ESE10.1 kmh ESE 7.8 mph12.6 kmh 29.76 in1007.8 mb 0.00 in0.0 mm 0.00 in/hr0.0 mm/hr 0.00 in0.0 mm
07:57 PM 70.7°F21.5°C 66.7°F19.3°C 87% 6.9 mph SE11.1 kmh SE 8.3 mph13.4 kmh 29.76 in1007.8 mb 0.00 in0.0 mm 0.00 in/hr0.0 mm/hr 0.00 in0.0 mm
08:01 PM 70.7°F21.5°C 66.7°F19.3°C 87% 5.2 mph E8.4 kmh E 8.3 mph13.4 kmh 29.76 in1007.8 mb 0.00 in0.0 mm 0.00 in/hr0.0 mm/hr 0.00 in0.0 mm
08:07 PM 70.6°F21.4°C 66.8°F19.3°C 88% 5.6 mph SE9.0 kmh SE 6.7 mph10.8 kmh 29.76 in1007.8 mb 0.00 in0.0 mm 0.00 in/hr0.0 mm/hr 0.00 in0.0 mm
08:12 PM 70.6°F21.4°C 66.5°F19.2°C 87% 2.9 mph E4.7 kmh E 6.7 mph10.8 kmh 29.76 in1007.8 mb 0.00 in0.0 mm 0.00 in/hr0.0 mm/hr 0.00 in0.0 mm
08:17 PM 70.6°F21.4°C 66.5°F19.2°C 87% 4.9 mph SE7.9 kmh SE 5.4 mph8.7 kmh 29.76 in1007.8 mb 0.00 in0.0 mm 0.00 in/hr0.0 mm/hr 0.00 in0.0 mm
08:22 PM 70.6°F21.4°C 66.8°F19.3°C 88% 4.8 mph SE7.7 kmh SE 5.8 mph9.3 kmh 29.76 in1007.8 mb 0.00 in0.0 mm 0.00 in/hr0.0 mm/hr 0.00 in0.0 mm
08:27 PM 70.6°F21.4°C 66.8°F19.3°C 88% 4.9 mph SSE7.9 kmh SSE 7.2 mph11.6 kmh 29.76 in1007.8 mb 0.00 in0.0 mm 0.00 in/hr0.0 mm/hr 0.00 in0.0 mm
08:32 PM 70.4°F21.3°C 66.6°F19.2°C 88% 6.1 mph SE9.8 kmh SE 7.2 mph11.6 kmh 29.76 in1007.8 mb 0.00 in0.0 mm 0.00 in/hr0.0 mm/hr 0.00 in0.0 mm
10:19 PM 70.4°F21.3°C 66.6°F19.2°C 88% 4.6 mph SE7.4 kmh SE 7.4 mph11.9 kmh 29.76 in1007.8 mb 0.00 in0.0 mm 0.00 in/hr0.0 mm/hr 0.00 in0.0 mm
11:04 PM 69.5°F20.8°C 65.7°F18.7°C 88% 4.3 mph E6.9 kmh E 4.5 mph7.2 kmh 29.76 in1007.8 mb 0.00 in0.0 mm 0.00 in/hr0.0 mm/hr 0.00 in0.0 mm
11:09 PM 69.5°F20.8°C 65.7°F18.7°C 88% 4.6 mph SE7.4 kmh SE 5.4 mph8.7 kmh 29.76 in1007.8 mb 0.00 in0.0 mm 0.00 in/hr0.0 mm/hr 0.00 in0.0 mm
11:15 PM 69.5°F20.8°C 65.7°F18.7°C 88% 3.4 mph SE5.5 kmh SE 5.4 mph8.7 kmh 29.76 in1007.8 mb 0.00 in0.0 mm 0.00 in/hr0.0 mm/hr 0.00 in0.0 mm
11:19 PM 69.5°F20.8°C 65.7°F18.7°C 88% 3.4 mph SE5.5 kmh SE 4.7 mph7.6 kmh 29.76 in1007.8 mb 0.00 in0.0 mm 0.00 in/hr0.0 mm/hr 0.00 in0.0 mm
11:24 PM 69.5°F20.8°C 65.7°F18.7°C 88% 1.5 mph SE2.4 kmh SE 4.7 mph7.6 kmh 29.77 in1008.1 mb 0.00 in0.0 mm 0.00 in/hr0.0 mm/hr 0.00 in0.0 mm
11:29 PM 69.5°F20.8°C 65.7°F18.7°C 88% 2.0 mph SE3.2 kmh SE 3.4 mph5.5 kmh 29.77 in1008.1 mb 0.00 in0.0 mm 0.00 in/hr0.0 mm/hr 0.00 in0.0 mm
11:34 PM 69.5°F20.8°C 65.7°F18.7°C 88% 1.5 mph SE2.4 kmh SE 2.9 mph4.7 kmh 29.76 in1007.8 mb 0.00 in0.0 mm 0.00 in/hr0.0 mm/hr 0.00 in0.0 mm
11:39 PM 69.5°F20.8°C 65.7°F18.7°C 88% 2.2 mph ESE3.5 kmh ESE 3.1 mph5.0 kmh 29.76 in1007.8 mb 0.00 in0.0 mm 0.00 in/hr0.0 mm/hr 0.00 in0.0 mm
11:45 PM 69.5°F20.8°C 65.7°F18.7°C 88% 1.7 mph ESE2.7 kmh ESE 3.1 mph5.0 kmh 29.76 in1007.8 mb 0.00 in0.0 mm 0.00 in/hr0.0 mm/hr 0.00 in0.0 mm
11:50 PM 69.5°F20.8°C 65.7°F18.7°C 88% 2.3 mph ESE3.7 kmh ESE 3.6 mph5.8 kmh 29.76 in1007.8 mb 0.00 in0.0 mm 0.00 in/hr0.0 mm/hr 0.00 in0.0 mm
11:55 PM 69.5°F20.8°C 65.7°F18.7°C 88% 1.7 mph ESE2.7 kmh ESE 3.8 mph6.1 kmh 29.76 in1007.8 mb 0.00 in0.0 mm 0.00 in/hr0.0 mm/hr 0.00 in0.0 mm